Time;durP1;ratioP1;P1;durP2;ratioP2;P2;SDS_P1;SDS_P2;PMS_P1;PMS_P2;Temp;Humidity;BMP_temperature;BMP_pressure;BME280_temperature;BME280_humidity;BME280_pressure;Samples;Min_cycle;Max_cycle;Signal;HPM_P1;HPM_P2
2022/08/05 00:02:16;;;;;;;2.00;0.80;;;27.50;42.40;;;;;;2403397;53;20966;-71
2022/08/05 00:04:42;;;;;;;2.00;1.00;;;27.50;42.40;;;;;;2332714;54;20929;-70
2022/08/05 00:07:08;;;;;;;2.00;0.93;;;27.50;42.40;;;;;;2331281;54;20985;-71
2022/08/05 00:09:37;;;;;;;1.83;0.82;;;27.40;42.50;;;;;;2343777;55;20936;-72
2022/08/05 00:12:04;;;;;;;1.77;0.80;;;27.30;42.40;;;;;;2320894;55;20937;-73
2022/08/05 00:14:32;;;;;;;3.58;0.88;;;27.40;42.60;;;;;;2320330;54;20917;-73
2022/08/05 00:17:04;;;;;;;2.28;0.98;;;27.30;42.60;;;;;;2455289;53;21402;-71
2022/08/05 00:19:31;;;;;;;2.42;1.02;;;27.30;42.90;;;;;;2343365;54;20999;-71
2022/08/05 00:21:57;;;;;;;1.62;0.77;;;27.30;42.80;;;;;;2554128;53;20890;-72
2022/08/05 00:24:24;;;;;;;3.00;1.20;;;27.30;42.90;;;;;;2334582;54;20976;-71
2022/08/05 00:26:51;;;;;;;2.05;0.93;;;27.20;43.10;;;;;;2322852;54;20941;-70
2022/08/05 00:29:18;;;;;;;2.00;1.00;;;27.20;43.10;;;;;;2532667;53;20977;-71
2022/08/05 00:31:45;;;;;;;2.17;1.10;;;27.20;43.10;;;;;;2558900;53;20986;-71
2022/08/05 00:34:11;;;;;;;2.30;1.10;;;27.20;43.50;;;;;;2331096;54;21019;-75
2022/08/05 00:36:38;;;;;;;4.20;1.15;;;27.10;43.50;;;;;;2507055;54;20941;-76
2022/08/05 00:39:06;;;;;;;2.60;1.08;;;27.10;43.30;;;;;;2343985;55;21643;-71
2022/08/05 00:41:32;;;;;;;1.77;0.80;;;27.10;43.40;;;;;;2343443;55;21580;-72
2022/08/05 00:43:59;;;;;;;3.97;1.17;;;27.10;43.40;;;;;;2343827;54;20921;-73
2022/08/05 00:46:26;;;;;;;2.17;0.82;;;27.00;43.40;;;;;;2590067;53;21697;-71
2022/08/05 00:48:52;;;;;;;2.53;0.80;;;27.00;43.40;;;;;;2557113;53;20909;-72
2022/08/05 00:51:21;;;;;;;2.50;1.30;;;27.00;43.50;;;;;;2474500;53;20964;-71
2022/08/05 00:53:48;;;;;;;2.05;0.90;;;27.00;43.60;;;;;;2563574;53;21464;-71
2022/08/05 00:56:15;;;;;;;2.55;0.95;;;27.00;43.60;;;;;;2340545;54;21004;-71
2022/08/05 00:58:41;;;;;;;1.73;0.88;;;27.00;43.60;;;;;;2573519;53;21089;-71
2022/08/05 01:01:10;;;;;;;1.80;0.90;;;27.00;43.70;;;;;;2329025;54;20956;-72
2022/08/05 01:03:39;;;;;;;1.87;0.80;;;27.00;43.80;;;;;;2588040;53;20948;-72
2022/08/05 01:06:08;;;;;;;2.00;0.90;;;27.00;43.80;;;;;;2343843;55;20940;-70
2022/08/05 01:08:35;;;;;;;1.52;0.68;;;27.00;43.80;;;;;;2343679;55;20997;-72
2022/08/05 01:11:20;;;;;;;3.87;1.20;;;27.00;43.80;;;;;;2330578;54;20937;-72
2022/08/05 01:14:10;;;;;;;1.83;0.85;;;27.00;44.00;;;;;;2581562;53;20976;-72
2022/08/05 01:18:11;;;;;;;2.00;0.98;;;27.00;44.00;;;;;;2343915;54;21013;-71
2022/08/05 01:23:48;;;;;;;1.33;0.70;;;27.00;44.00;;;;;;2380306;53;21016;-73
2022/08/05 01:29:33;;;;;;;1.85;0.70;;;27.00;44.00;;;;;;2590016;53;21000;-72
2022/08/05 01:32:01;;;;;;;1.42;0.70;;;27.00;44.00;;;;;;2590581;53;20976;-72
2022/08/05 01:34:30;;;;;;;1.35;0.70;;;27.00;43.70;;;;;;2319887;54;21353;-69
2022/08/05 01:37:24;;;;;;;2.53;0.70;;;27.00;43.80;;;;;;2589245;53;20928;-71
2022/08/05 01:39:53;;;;;;;1.65;0.65;;;27.00;44.30;;;;;;2317151;54;21014;-71
2022/08/05 01:42:20;;;;;;;2.62;1.10;;;27.00;44.00;;;;;;2512103;54;20933;-73
2022/08/05 01:44:47;;;;;;;2.67;0.90;;;27.00;44.30;;;;;;2336627;54;20972;-72
2022/08/05 01:47:15;;;;;;;1.85;1.00;;;26.90;44.30;;;;;;2589916;53;21004;-72
2022/08/05 01:49:41;;;;;;;2.22;1.00;;;26.90;44.40;;;;;;2344033;54;20996;-72
2022/08/05 01:52:10;;;;;;;1.62;0.80;;;27.00;44.60;;;;;;2562277;53;20925;-71
2022/08/05 01:54:53;;;;;;;1.52;0.73;;;27.00;44.60;;;;;;2338669;54;20940;-74
2022/08/05 01:57:27;;;;;;;3.33;0.80;;;27.00;44.80;;;;;;2342950;54;21033;-71
2022/08/05 01:59:57;;;;;;;1.30;0.65;;;27.00;44.80;;;;;;2343504;54;20980;-71
2022/08/05 02:02:24;;;;;;;2.83;0.82;;;26.90;44.80;;;;;;2448719;53;20936;-69
2022/08/05 02:04:50;;;;;;;2.30;1.00;;;26.90;44.80;;;;;;2343857;55;21484;-71
2022/08/05 02:07:17;;;;;;;1.60;0.80;;;26.90;44.80;;;;;;2487239;53;20973;-74
2022/08/05 02:09:44;;;;;;;2.15;0.90;;;26.90;44.90;;;;;;2320922;54;21811;-73
2022/08/05 02:19:14;;;;;;;4.45;0.90;;;26.90;44.90;;;;;;2540103;54;20917;-71
2022/08/05 02:21:44;;;;;;;1.25;0.60;;;26.90;44.80;;;;;;2343136;55;20936;-71
2022/08/05 02:24:13;;;;;;;1.70;0.75;;;26.90;44.60;;;;;;2343790;54;20912;-71
2022/08/05 02:26:55;;;;;;;1.40;0.70;;;26.80;44.80;;;;;;2344170;54;20985;-71
2022/08/05 02:29:24;;;;;;;4.43;0.80;;;26.80;45.30;;;;;;2406972;53;20985;-72
2022/08/05 02:31:50;;;;;;;2.10;0.90;;;26.80;45.10;;;;;;2561515;53;21042;-74
2022/08/05 02:34:18;;;;;;;1.58;0.80;;;26.80;45.10;;;;;;2373616;53;20991;-73
2022/08/05 02:36:54;;;;;;;3.10;1.10;;;26.70;45.10;;;;;;2322675;54;20941;-71
2022/08/05 02:39:22;;;;;;;2.03;0.80;;;26.70;45.40;;;;;;2488577;54;21048;-71
2022/08/05 02:41:48;;;;;;;1.85;0.90;;;26.70;45.40;;;;;;2342975;54;20964;-74
2022/08/05 02:44:15;;;;;;;2.12;0.90;;;26.70;45.60;;;;;;2425485;53;20956;-71
2022/08/05 02:46:43;;;;;;;1.67;0.77;;;26.70;45.50;;;;;;2346409;54;20960;-71
2022/08/05 02:49:10;;;;;;;1.73;0.90;;;26.70;45.50;;;;;;2565725;53;21064;-70
2022/08/05 02:51:38;;;;;;;1.45;0.62;;;26.70;45.60;;;;;;2323608;54;20976;-72
2022/08/05 02:54:06;;;;;;;2.30;1.05;;;26.70;45.70;;;;;;2409399;54;20921;-74
2022/08/05 02:56:32;;;;;;;1.42;0.80;;;26.70;45.70;;;;;;2317653;54;20933;-73
2022/08/05 02:58:59;;;;;;;1.65;0.80;;;26.70;45.80;;;;;;2547401;53;21765;-73
2022/08/05 03:01:25;;;;;;;1.85;0.98;;;26.70;45.80;;;;;;2436131;54;21080;-71
2022/08/05 03:03:53;;;;;;;3.62;1.10;;;26.70;45.80;;;;;;2548561;53;21005;-73
2022/08/05 03:06:20;;;;;;;1.70;0.80;;;26.70;46.00;;;;;;2319050;54;20925;-71
2022/08/05 03:08:49;;;;;;;2.15;0.90;;;26.70;46.00;;;;;;2352476;54;20937;-71
2022/08/05 03:11:17;;;;;;;3.10;1.02;;;26.70;46.00;;;;;;2315359;54;21389;-72
2022/08/05 03:13:43;;;;;;;2.58;0.95;;;26.70;46.10;;;;;;2418205;54;20973;-72
2022/08/05 03:16:09;;;;;;;2.22;1.00;;;26.70;46.10;;;;;;2315517;54;21557;-70
2022/08/05 03:18:39;;;;;;;1.83;0.90;;;26.70;46.20;;;;;;2327039;54;21080;-73
2022/08/05 03:21:05;;;;;;;3.33;1.00;;;26.70;46.20;;;;;;2313195;54;20920;-72
2022/08/05 03:23:32;;;;;;;2.00;0.85;;;26.60;46.30;;;;;;2346367;54;21490;-73
2022/08/05 03:25:59;;;;;;;3.50;0.90;;;26.60;46.30;;;;;;2389142;54;20897;-73
2022/08/05 03:28:30;;;;;;;2.62;1.05;;;26.60;46.50;;;;;;2328618;53;21486;-73
2022/08/05 03:30:59;;;;;;;2.42;1.00;;;26.60;46.50;;;;;;2325912;54;21058;-74
2022/08/05 03:33:26;;;;;;;2.40;1.00;;;26.60;46.50;;;;;;2355853;54;20964;-72
2022/08/05 03:35:54;;;;;;;1.85;0.90;;;26.60;46.70;;;;;;2320298;54;21854;-72
2022/08/05 03:38:21;;;;;;;1.83;0.90;;;26.60;46.60;;;;;;2577266;53;21013;-72
2022/08/05 03:40:48;;;;;;;3.67;1.10;;;26.60;46.60;;;;;;2314452;54;21024;-71
2022/08/05 03:43:15;;;;;;;2.90;1.20;;;26.60;46.70;;;;;;2385516;53;21013;-73
2022/08/05 03:45:42;;;;;;;1.62;0.73;;;26.60;46.60;;;;;;2322861;54;20933;-72
2022/08/05 03:48:09;;;;;;;3.03;1.05;;;26.60;46.60;;;;;;2317886;54;20947;-72
2022/08/05 03:51:21;;;;;;;2.83;1.10;;;26.60;46.60;;;;;;2323807;54;21065;-73
2022/08/05 03:53:58;;;;;;;2.40;1.10;;;26.60;46.90;;;;;;2582402;53;21695;-73
2022/08/05 03:56:42;;;;;;;2.03;0.98;;;26.60;46.60;;;;;;2313400;54;20953;-72
2022/08/05 03:59:24;;;;;;;2.53;0.80;;;26.60;47.20;;;;;;2469389;53;21083;-71
2022/08/05 04:01:51;;;;;;;2.72;1.05;;;26.50;46.80;;;;;;2325900;54;20925;-73
2022/08/05 04:04:18;;;;;;;2.08;1.00;;;26.50;46.60;;;;;;2525691;53;21000;-73
2022/08/05 04:06:44;;;;;;;2.28;1.08;;;26.50;46.80;;;;;;2318635;54;20957;-73
2022/08/05 04:09:12;;;;;;;3.37;1.23;;;26.40;47.30;;;;;;2565571;53;20916;-74
2022/08/05 04:11:41;;;;;;;2.37;1.20;;;26.40;46.90;;;;;;2327672;54;21858;-71
2022/08/05 04:14:08;;;;;;;1.80;0.90;;;26.40;47.10;;;;;;2500116;53;21947;-71
2022/08/05 04:16:35;;;;;;;2.00;0.90;;;26.30;47.10;;;;;;2313597;54;21061;-73
2022/08/05 04:19:02;;;;;;;1.90;0.98;;;26.30;47.10;;;;;;2317476;54;21430;-72
2022/08/05 04:21:31;;;;;;;2.00;1.10;;;26.30;47.20;;;;;;2315713;54;20998;-71
2022/08/05 04:23:57;;;;;;;1.87;0.82;;;26.30;47.40;;;;;;2312837;54;21549;-73
2022/08/05 04:26:24;;;;;;;3.85;1.20;;;26.30;47.50;;;;;;2297129;53;21553;-72
2022/08/05 04:28:50;;;;;;;2.47;1.10;;;26.30;47.80;;;;;;2569660;53;20941;-71
2022/08/05 04:31:17;;;;;;;2.33;1.00;;;26.30;47.70;;;;;;2575458;53;21736;-71
2022/08/05 04:33:43;;;;;;;2.22;1.15;;;26.30;47.80;;;;;;2324528;54;20941;-73
2022/08/05 04:36:11;;;;;;;3.30;1.40;;;26.30;47.80;;;;;;2315799;54;21025;-72
2022/08/05 04:38:38;;;;;;;3.20;1.50;;;26.30;48.00;;;;;;2319814;54;20988;-73
2022/08/05 04:41:05;;;;;;;3.10;1.35;;;26.30;48.00;;;;;;2367857;54;20993;-71
2022/08/05 04:43:32;;;;;;;3.78;1.20;;;26.30;47.90;;;;;;2562913;53;21891;-73
2022/08/05 04:45:58;;;;;;;2.40;1.02;;;26.30;48.00;;;;;;2556924;54;20980;-71
2022/08/05 04:48:25;;;;;;;3.30;1.30;;;26.40;48.10;;;;;;2324364;54;20927;-73
2022/08/05 04:50:53;;;;;;;3.75;1.37;;;26.40;48.10;;;;;;2321287;54;21079;-72
2022/08/05 04:53:20;;;;;;;3.60;1.20;;;26.50;48.20;;;;;;2554305;54;20937;-71
2022/08/05 04:55:46;;;;;;;2.70;1.27;;;26.50;48.10;;;;;;2334637;54;21050;-70
2022/08/05 04:58:15;;;;;;;2.60;1.20;;;26.50;48.10;;;;;;2571611;53;21028;-71
2022/08/05 05:00:42;;;;;;;4.57;1.35;;;26.50;48.10;;;;;;2318797;54;21025;-70
2022/08/05 05:03:08;;;;;;;2.28;1.02;;;26.60;48.10;;;;;;2403221;53;20958;-72
2022/08/05 05:05:35;;;;;;;2.80;1.15;;;26.60;48.00;;;;;;2326487;54;21057;-71
2022/08/05 05:08:04;;;;;;;3.05;1.10;;;26.70;48.10;;;;;;2322225;54;20985;-71
2022/08/05 05:10:31;;;;;;;2.25;1.15;;;26.70;48.00;;;;;;2325429;54;20925;-71
2022/08/05 05:12:57;;;;;;;2.25;1.05;;;26.70;48.00;;;;;;2324672;54;20970;-74
2022/08/05 05:15:25;;;;;;;2.30;1.17;;;26.80;48.00;;;;;;2323002;54;21119;-70
2022/08/05 05:17:51;;;;;;;2.08;1.08;;;26.80;48.00;;;;;;2343334;54;20962;-73
2022/08/05 05:20:17;;;;;;;3.55;1.02;;;26.90;47.90;;;;;;2458358;54;21439;-73
2022/08/05 05:22:44;;;;;;;3.65;1.30;;;26.90;47.90;;;;;;2325694;54;21015;-73
2022/08/05 05:25:11;;;;;;;2.53;1.23;;;27.00;47.90;;;;;;2318644;54;21782;-74
2022/08/05 05:27:37;;;;;;;2.15;0.90;;;27.00;47.90;;;;;;2572843;53;20934;-71
2022/08/05 05:30:05;;;;;;;2.08;0.88;;;27.00;47.80;;;;;;2344537;55;21054;-73
2022/08/05 05:32:32;;;;;;;3.60;1.58;;;27.10;48.00;;;;;;2344550;54;21396;-71
2022/08/05 05:34:58;;;;;;;3.15;1.00;;;27.10;47.90;;;;;;2345067;55;20926;-72
2022/08/05 05:37:25;;;;;;;3.60;0.93;;;27.10;48.00;;;;;;2344664;55;20944;-71
2022/08/05 05:39:52;;;;;;;1.98;0.90;;;27.20;48.20;;;;;;2344456;54;20962;-73
2022/08/05 05:42:18;;;;;;;2.22;1.00;;;27.20;48.20;;;;;;2344606;54;21523;-72
2022/08/05 05:44:45;;;;;;;3.70;1.10;;;27.20;48.20;;;;;;2344303;54;21412;-72
2022/08/05 05:47:11;;;;;;;2.70;1.20;;;27.30;48.20;;;;;;2344589;55;20949;-72
2022/08/05 05:49:38;;;;;;;2.62;0.98;;;27.30;48.10;;;;;;2344662;55;21010;-73
2022/08/05 05:52:04;;;;;;;2.20;0.93;;;27.30;48.10;;;;;;2346562;54;20954;-71
2022/08/05 05:54:32;;;;;;;2.20;0.90;;;27.40;48.10;;;;;;2345557;54;20941;-73
2022/08/05 05:56:58;;;;;;;2.65;1.35;;;27.40;48.70;;;;;;2344345;54;20986;-73
2022/08/05 05:59:25;;;;;;;2.12;1.23;;;27.40;48.00;;;;;;2344665;54;21428;-73
2022/08/05 06:01:52;;;;;;;2.37;1.15;;;27.50;47.90;;;;;;2335782;54;20962;-72
2022/08/05 06:04:18;;;;;;;2.55;1.00;;;27.50;48.50;;;;;;2331856;54;21034;-71
2022/08/05 06:06:44;;;;;;;2.45;1.12;;;27.50;47.80;;;;;;2321749;54;20921;-73
2022/08/05 06:09:11;;;;;;;2.10;1.00;;;27.50;47.70;;;;;;2561762;53;20938;-73
2022/08/05 06:11:37;;;;;;;2.87;0.93;;;27.60;47.60;;;;;;2344383;54;21053;-73
2022/08/05 06:14:03;;;;;;;2.37;1.00;;;27.60;47.50;;;;;;2590644;53;20938;-73
2022/08/05 06:16:30;;;;;;;2.50;1.08;;;27.60;47.40;;;;;;2344069;54;21021;-72
2022/08/05 06:19:01;;;;;;;3.35;1.30;;;27.60;47.40;;;;;;2565712;53;21038;-71
2022/08/05 06:21:31;;;;;;;2.58;1.35;;;27.60;47.50;;;;;;2588760;53;21097;-72
2022/08/05 06:23:58;;;;;;;2.10;1.02;;;27.60;47.40;;;;;;2344558;55;20958;-73
2022/08/05 06:26:25;;;;;;;2.47;1.10;;;27.60;47.30;;;;;;2327769;54;21018;-72
2022/08/05 06:28:51;;;;;;;2.60;1.08;;;27.70;47.40;;;;;;2341567;54;20974;-74
2022/08/05 06:31:18;;;;;;;2.78;1.25;;;27.60;47.30;;;;;;2334450;54;21066;-71
2022/08/05 06:33:45;;;;;;;2.08;0.90;;;27.60;47.30;;;;;;2333886;54;20942;-72
2022/08/05 06:36:11;;;;;;;3.28;1.20;;;27.60;47.30;;;;;;2337203;54;21017;-73
2022/08/05 06:38:38;;;;;;;2.95;1.30;;;27.60;47.40;;;;;;2332511;54;20942;-72
2022/08/05 06:41:05;;;;;;;2.35;1.02;;;27.60;47.40;;;;;;2344757;55;20993;-71
2022/08/05 06:43:31;;;;;;;3.22;1.00;;;27.70;47.40;;;;;;2591131;53;20931;-71
2022/08/05 06:45:59;;;;;;;2.22;0.93;;;27.70;47.40;;;;;;2333150;54;20947;-71
2022/08/05 06:48:25;;;;;;;2.22;1.08;;;27.80;47.70;;;;;;2335986;54;20974;-70
2022/08/05 06:50:52;;;;;;;2.10;1.10;;;27.80;47.60;;;;;;2343746;55;21022;-73
2022/08/05 06:53:19;;;;;;;1.73;0.93;;;27.80;47.70;;;;;;2335786;54;20951;-73
2022/08/05 06:55:45;;;;;;;2.50;0.98;;;27.90;47.80;;;;;;2333766;54;20982;-72
2022/08/05 06:58:12;;;;;;;3.97;1.00;;;27.90;47.70;;;;;;2344563;54;21029;-70
2022/08/05 07:00:38;;;;;;;2.55;1.15;;;28.00;47.50;;;;;;2376497;53;21152;-71
2022/08/05 07:03:05;;;;;;;2.20;0.93;;;28.00;47.40;;;;;;2343074;54;21014;-73
2022/08/05 07:05:32;;;;;;;1.92;0.85;;;28.10;47.50;;;;;;2323990;54;20971;-70
2022/08/05 07:07:59;;;;;;;2.72;1.27;;;28.10;47.40;;;;;;2318680;54;21090;-71
2022/08/05 07:10:29;;;;;;;2.50;1.10;;;28.20;47.60;;;;;;2318485;54;20960;-73
2022/08/05 07:18:26;;;;;;;2.62;1.08;;;28.30;47.50;;;;;;2344872;54;20918;-72
2022/08/05 07:20:53;;;;;;;2.75;1.20;;;28.30;47.50;;;;;;2344386;55;20970;-71
2022/08/05 07:23:19;;;;;;;2.15;1.02;;;28.40;47.60;;;;;;2345311;54;21038;-71
2022/08/05 07:25:46;;;;;;;1.85;0.85;;;28.40;47.60;;;;;;2349022;53;20990;-73
2022/08/05 07:28:12;;;;;;;1.95;0.93;;;28.50;47.60;;;;;;2344392;54;20946;-72
2022/08/05 07:30:39;;;;;;;2.35;1.15;;;28.50;47.50;;;;;;2323929;54;21002;-72
2022/08/05 07:33:07;;;;;;;2.40;0.90;;;28.60;47.50;;;;;;2344292;54;20993;-73
2022/08/05 07:35:33;;;;;;;2.20;1.17;;;28.60;47.30;;;;;;2341094;54;21458;-72
2022/08/05 07:38:00;;;;;;;2.17;1.17;;;28.70;47.30;;;;;;2588383;53;20934;-73
2022/08/05 07:40:27;;;;;;;2.40;1.17;;;28.70;47.40;;;;;;2345882;54;20986;-72
2022/08/05 07:42:53;;;;;;;2.78;1.23;;;28.80;47.60;;;;;;2321852;54;21006;-72
2022/08/05 07:45:20;;;;;;;2.42;1.10;;;28.80;47.30;;;;;;2325628;54;20966;-73
2022/08/05 07:47:46;;;;;;;3.53;0.95;;;28.90;47.20;;;;;;2342192;54;21028;-72
2022/08/05 07:50:13;;;;;;;1.83;1.05;;;28.90;47.30;;;;;;2344241;54;20950;-73
2022/08/05 07:52:42;;;;;;;2.30;0.90;;;29.00;47.40;;;;;;2344460;55;20939;-72
2022/08/05 07:55:09;;;;;;;2.65;1.17;;;29.00;47.20;;;;;;2510593;53;20967;-73
2022/08/05 07:57:36;;;;;;;2.65;1.20;;;29.10;47.40;;;;;;2339549;54;20995;-72
2022/08/05 08:00:05;;;;;;;1.70;1.00;;;29.20;47.20;;;;;;2309591;57;21070;-72
2022/08/05 08:02:32;;;;;;;1.92;0.90;;;29.30;47.20;;;;;;2345002;54;21018;-74
2022/08/05 08:04:59;;;;;;;2.30;1.10;;;29.30;46.60;;;;;;2343045;57;21626;-73
2022/08/05 08:07:26;;;;;;;1.90;1.00;;;29.40;46.50;;;;;;2343073;57;21118;-72
2022/08/05 08:09:52;;;;;;;2.40;1.10;;;29.40;46.30;;;;;;2342592;57;21070;-71
2022/08/05 08:12:21;;;;;;;2.08;0.90;;;29.50;46.30;;;;;;2343124;57;21122;-74
2022/08/05 08:14:50;;;;;;;1.52;0.75;;;29.60;46.10;;;;;;2342574;57;21137;-73
2022/08/05 08:17:21;;;;;;;1.77;0.90;;;29.60;45.90;;;;;;2343078;57;21117;-74
2022/08/05 08:19:47;;;;;;;1.40;0.70;;;29.70;45.70;;;;;;2309630;54;21032;-72
2022/08/05 08:22:17;;;;;;;1.77;0.90;;;29.70;45.40;;;;;;2319090;54;20946;-74
2022/08/05 08:24:43;;;;;;;3.47;1.12;;;29.80;45.40;;;;;;2323110;54;20946;-72
2022/08/05 08:27:11;;;;;;;2.47;1.00;;;29.90;45.50;;;;;;2345506;54;21440;-73
2022/08/05 08:29:37;;;;;;;3.25;0.90;;;29.90;45.10;;;;;;2334072;54;21189;-72
2022/08/05 08:32:04;;;;;;;1.95;0.88;;;30.00;44.90;;;;;;2476780;53;20938;-72
2022/08/05 08:34:30;;;;;;;2.33;0.95;;;30.00;44.60;;;;;;2334347;54;20897;-72
2022/08/05 08:36:57;;;;;;;2.28;1.10;;;30.10;44.40;;;;;;2478861;53;21487;-72
2022/08/05 08:39:24;;;;;;;3.20;1.00;;;30.20;44.10;;;;;;2557807;54;21012;-72
2022/08/05 08:41:52;;;;;;;1.80;0.93;;;30.20;44.00;;;;;;2345039;54;21387;-72
2022/08/05 08:44:19;;;;;;;2.60;1.05;;;30.20;44.30;;;;;;2344424;55;20969;-72
2022/08/05 08:46:46;;;;;;;1.70;0.90;;;30.30;44.40;;;;;;2590965;53;20998;-73
2022/08/05 08:49:18;;;;;;;1.80;0.80;;;30.40;44.20;;;;;;2344326;54;20942;-72
2022/08/05 08:52:30;;;;;;;2.47;1.00;;;30.40;43.70;;;;;;2468400;53;20966;-72
2022/08/05 08:54:58;;;;;;;1.90;1.00;;;30.50;43.00;;;;;;2298606;55;20960;-73
2022/08/05 08:57:25;;;;;;;2.22;0.80;;;30.50;43.30;;;;;;2316683;55;20984;-72
2022/08/05 08:59:51;;;;;;;1.35;0.60;;;30.50;43.00;;;;;;2316249;55;20949;-74
2022/08/05 09:02:18;;;;;;;3.80;0.90;;;30.60;42.90;;;;;;2293670;54;21009;-73
2022/08/05 09:04:45;;;;;;;1.90;0.80;;;30.70;42.80;;;;;;2341983;54;20926;-74
2022/08/05 09:07:12;;;;;;;2.58;0.77;;;30.70;42.60;;;;;;2316985;54;21011;-73
2022/08/05 09:09:38;;;;;;;1.52;0.82;;;30.80;43.20;;;;;;2317112;54;20927;-72
2022/08/05 09:12:06;;;;;;;2.22;0.90;;;30.80;42.40;;;;;;2317348;54;20991;-74
2022/08/05 09:14:39;;;;;;;1.87;0.80;;;30.90;42.50;;;;;;2316714;54;20974;-72
2022/08/05 09:17:07;;;;;;;2.30;1.17;;;30.90;42.50;;;;;;2317159;54;20998;-72
2022/08/05 09:19:34;;;;;;;1.85;0.93;;;30.90;42.20;;;;;;2557502;54;20939;-71
2022/08/05 09:22:00;;;;;;;2.37;0.80;;;31.00;42.10;;;;;;2317265;54;20976;-71
2022/08/05 09:24:28;;;;;;;2.55;0.98;;;31.10;42.10;;;;;;2319021;54;20936;-73
2022/08/05 09:26:56;;;;;;;2.78;1.20;;;31.20;42.00;;;;;;2322407;53;21042;-71
2022/08/05 09:29:44;;;;;;;1.60;0.70;;;31.20;42.00;;;;;;2343976;54;20932;-72
2022/08/05 09:32:11;;;;;;;2.10;0.90;;;31.30;41.80;;;;;;2344042;54;20929;-73
2022/08/05 09:34:48;;;;;;;2.35;0.90;;;31.30;41.80;;;;;;2482697;53;20917;-72
2022/08/05 09:37:19;;;;;;;4.25;0.90;;;31.40;41.30;;;;;;2344156;54;20932;-72
2022/08/05 09:39:45;;;;;;;1.98;1.00;;;31.50;41.50;;;;;;2319854;54;20933;-72
2022/08/05 09:42:16;;;;;;;1.65;0.70;;;31.60;41.50;;;;;;2344685;54;21746;-72
2022/08/05 09:44:46;;;;;;;2.00;0.90;;;31.60;41.40;;;;;;2557889;53;20989;-72
2022/08/05 09:47:16;;;;;;;1.98;0.90;;;31.70;41.40;;;;;;2398126;54;20920;-72
2022/08/05 09:49:50;;;;;;;2.42;0.93;;;31.70;41.00;;;;;;2323652;54;20972;-73
2022/08/05 09:52:27;;;;;;;2.17;1.00;;;31.80;41.00;;;;;;2342767;54;21398;-72
2022/08/05 09:55:12;;;;;;;2.00;0.90;;;31.90;40.90;;;;;;2323329;54;21204;-74
2022/08/05 09:57:46;;;;;;;1.85;0.82;;;32.00;40.80;;;;;;2323811;54;20933;-73
2022/08/05 10:00:18;;;;;;;1.60;0.80;;;32.00;40.60;;;;;;2316361;54;21032;-72
2022/08/05 10:02:46;;;;;;;1.83;0.88;;;32.00;40.30;;;;;;2343443;55;20948;-73
2022/08/05 10:05:24;;;;;;;1.83;0.80;;;32.10;40.40;;;;;;2399088;53;20982;-73
2022/08/05 10:07:57;;;;;;;1.45;0.70;;;32.10;40.20;;;;;;2470228;53;20989;-73
2022/08/05 10:10:37;;;;;;;2.05;0.90;;;32.10;40.10;;;;;;2344205;55;20904;-73
2022/08/05 10:13:05;;;;;;;3.42;1.20;;;32.20;40.20;;;;;;2342849;55;20963;-71
2022/08/05 10:15:33;;;;;;;1.77;0.80;;;32.20;40.30;;;;;;2314771;54;20977;-73
2022/08/05 10:18:13;;;;;;;2.60;1.10;;;32.20;40.10;;;;;;2328470;54;20977;-72
2022/08/05 10:20:44;;;;;;;1.75;0.80;;;32.30;39.90;;;;;;2320549;54;20989;-72
2022/08/05 10:23:12;;;;;;;3.15;0.90;;;32.40;40.30;;;;;;2344405;54;20930;-73
2022/08/05 10:25:44;;;;;;;1.58;0.70;;;32.40;40.00;;;;;;2343801;54;21012;-72
2022/08/05 10:28:11;;;;;;;2.15;1.00;;;32.40;39.80;;;;;;2320972;55;21500;-71
2022/08/05 10:30:38;;;;;;;3.15;1.10;;;32.50;39.90;;;;;;2343662;54;20993;-74
2022/08/05 10:33:05;;;;;;;1.77;1.08;;;32.50;39.80;;;;;;2582505;53;21557;-73
2022/08/05 10:35:31;;;;;;;1.73;0.93;;;32.60;39.90;;;;;;2317810;54;20909;-72
2022/08/05 10:37:59;;;;;;;3.25;1.08;;;32.60;39.80;;;;;;2322152;54;21057;-73
2022/08/05 10:41:54;;;;;;;1.85;1.00;;;32.60;39.60;;;;;;2314529;54;20985;-71
2022/08/05 10:44:23;;;;;;;2.20;0.90;;;32.70;39.70;;;;;;2535908;53;20945;-73
2022/08/05 10:46:51;;;;;;;1.98;0.90;;;32.70;39.70;;;;;;2343895;55;21806;-71
2022/08/05 10:49:18;;;;;;;1.95;0.90;;;32.70;39.60;;;;;;2514791;54;20963;-72
2022/08/05 10:51:48;;;;;;;1.90;0.85;;;32.70;39.30;;;;;;2319673;54;20953;-74
2022/08/05 10:54:15;;;;;;;2.53;1.00;;;32.80;39.20;;;;;;2305127;55;21609;-73
2022/08/05 10:56:54;;;;;;;1.85;0.90;;;32.70;39.00;;;;;;2354782;53;21012;-73
2022/08/05 10:59:25;;;;;;;2.20;0.95;;;32.80;39.00;;;;;;2584068;53;21019;-71
2022/08/05 11:02:08;;;;;;;2.58;1.30;;;32.80;39.10;;;;;;2319549;55;20929;-74
2022/08/05 11:04:45;;;;;;;2.42;0.80;;;32.80;38.90;;;;;;2385015;54;21114;-73
2022/08/05 11:07:16;;;;;;;2.22;1.00;;;32.80;39.10;;;;;;2316700;54;21034;-73
2022/08/05 11:10:01;;;;;;;2.80;1.20;;;32.90;39.00;;;;;;2542222;53;20942;-71
2022/08/05 11:13:00;;;;;;;2.55;0.98;;;32.90;38.90;;;;;;2318135;55;21460;-73
2022/08/05 11:15:34;;;;;;;2.47;1.00;;;33.00;38.80;;;;;;2557626;54;20943;-74
2022/08/05 11:18:26;;;;;;;2.78;0.98;;;33.00;39.30;;;;;;2453272;54;21420;-73
2022/08/05 11:20:53;;;;;;;1.92;0.90;;;33.00;38.70;;;;;;2344918;54;20947;-74
2022/08/05 11:23:56;;;;;;;3.87;1.00;;;33.10;38.90;;;;;;2316193;54;20955;-73
2022/08/05 11:26:23;;;;;;;1.80;0.80;;;33.10;38.90;;;;;;2556988;54;20947;-74
2022/08/05 11:28:51;;;;;;;1.75;0.82;;;33.10;38.90;;;;;;2318737;54;21025;-73
2022/08/05 11:31:32;;;;;;;1.90;0.93;;;33.20;38.90;;;;;;2422636;53;20917;-73
2022/08/05 11:34:03;;;;;;;2.83;0.98;;;33.20;38.50;;;;;;2320215;54;21072;-73
2022/08/05 11:36:47;;;;;;;2.35;1.00;;;33.20;38.60;;;;;;2577501;53;20976;-73
2022/08/05 11:39:15;;;;;;;3.62;0.90;;;33.30;38.50;;;;;;2463600;53;20972;-74
2022/08/05 11:41:47;;;;;;;2.00;0.88;;;33.30;38.40;;;;;;2588194;53;20944;-74
2022/08/05 11:44:14;;;;;;;2.72;1.10;;;33.40;38.40;;;;;;2344148;54;20976;-74
2022/08/05 11:46:51;;;;;;;2.10;1.10;;;33.40;38.20;;;;;;2347871;53;21036;-73
2022/08/05 11:49:19;;;;;;;1.77;0.80;;;33.50;37.90;;;;;;2320934;54;20945;-72
2022/08/05 11:51:47;;;;;;;1.67;0.75;;;33.50;38.00;;;;;;2320596;54;20989;-72
2022/08/05 11:54:21;;;;;;;2.30;1.02;;;33.60;38.10;;;;;;2343796;55;21742;-74
2022/08/05 11:56:49;;;;;;;1.92;0.90;;;33.60;37.90;;;;;;2361712;53;20947;-73
2022/08/05 11:59:22;;;;;;;1.92;1.00;;;33.60;37.80;;;;;;2343616;55;20952;-76
2022/08/05 12:01:57;;;;;;;2.12;0.90;;;33.70;37.80;;;;;;2473316;53;20944;-73
2022/08/05 12:04:23;;;;;;;2.15;1.10;;;33.70;37.70;;;;;;2343721;54;21798;-73
2022/08/05 12:06:50;;;;;;;2.50;0.98;;;33.70;37.50;;;;;;2343707;54;20964;-76
2022/08/05 12:09:19;;;;;;;2.58;1.12;;;33.70;37.60;;;;;;2344058;54;21791;-73
2022/08/05 12:11:46;;;;;;;2.12;1.02;;;33.70;37.40;;;;;;2589632;53;20948;-74
2022/08/05 12:14:12;;;;;;;2.17;0.90;;;33.80;37.50;;;;;;2345944;54;21004;-73
2022/08/05 12:16:42;;;;;;;2.15;0.98;;;33.80;37.50;;;;;;2550961;53;20924;-72
2022/08/05 12:19:10;;;;;;;2.15;1.00;;;33.90;37.40;;;;;;2343336;54;20937;-72
2022/08/05 12:21:48;;;;;;;1.85;1.00;;;33.90;37.10;;;;;;2495356;53;20937;-72
2022/08/05 12:24:24;;;;;;;2.58;1.17;;;33.90;37.20;;;;;;2319085;54;20913;-72
2022/08/05 12:26:51;;;;;;;2.03;0.98;;;34.00;37.20;;;;;;2562079;53;21841;-74
2022/08/05 12:29:25;;;;;;;2.65;0.90;;;34.00;37.20;;;;;;2464300;53;20924;-72
2022/08/05 12:31:58;;;;;;;2.67;0.73;;;34.00;36.90;;;;;;2590147;53;20996;-72
2022/08/05 12:34:35;;;;;;;1.80;0.80;;;34.00;37.00;;;;;;2323959;54;20929;-74
2022/08/05 12:37:11;;;;;;;2.00;0.80;;;34.20;37.30;;;;;;2583333;53;20968;-72
2022/08/05 12:39:38;;;;;;;2.58;1.00;;;34.20;36.80;;;;;;2324085;54;21700;-74
2022/08/05 12:42:12;;;;;;;2.10;1.00;;;34.20;36.90;;;;;;2535018;53;20922;-72
2022/08/05 12:44:38;;;;;;;2.30;1.12;;;34.30;36.80;;;;;;2304745;55;20965;-72
2022/08/05 12:47:05;;;;;;;2.08;1.02;;;34.30;37.00;;;;;;2323514;54;20992;-74
2022/08/05 12:49:50;;;;;;;2.05;1.10;;;34.40;37.00;;;;;;2343959;54;20984;-73
2022/08/05 12:52:17;;;;;;;2.40;1.10;;;34.50;36.50;;;;;;2557695;53;21013;-72
2022/08/05 12:54:49;;;;;;;2.05;1.00;;;34.50;36.50;;;;;;2328356;54;21009;-72
2022/08/05 12:57:18;;;;;;;2.10;1.00;;;34.50;36.30;;;;;;2456834;53;20953;-73
2022/08/05 12:59:46;;;;;;;2.08;1.10;;;34.60;36.20;;;;;;2331233;54;21040;-75
2022/08/05 13:02:21;;;;;;;1.77;1.00;;;34.60;36.10;;;;;;2557230;53;20918;-73
2022/08/05 13:04:49;;;;;;;2.10;0.93;;;34.60;35.90;;;;;;2343934;54;20940;-73
2022/08/05 13:07:26;;;;;;;2.10;1.02;;;34.60;35.90;;;;;;2434271;53;20956;-73
2022/08/05 13:10:15;;;;;;;2.53;0.93;;;34.60;35.90;;;;;;2345180;54;21782;-72
2022/08/05 13:12:43;;;;;;;1.85;1.00;;;34.60;36.10;;;;;;2319290;55;20944;-73
2022/08/05 13:15:10;;;;;;;2.20;1.00;;;34.70;36.00;;;;;;2321597;54;21024;-74
2022/08/05 13:17:42;;;;;;;2.08;1.00;;;34.70;36.10;;;;;;2450974;53;20977;-73
2022/08/05 13:20:17;;;;;;;4.07;1.27;;;34.70;36.10;;;;;;2341640;54;20953;-72
2022/08/05 13:22:55;;;;;;;2.40;1.10;;;34.70;36.10;;;;;;2590453;53;20987;-72